Time;durP1;ratioP1;P1;durP2;ratioP2;P2;SDS_P1;SDS_P2;PMS_P1;PMS_P2;Temp;Humidity;BMP_temperature;BMP_pressure;BME280_temperature;BME280_humidity;BME280_pressure;Samples;Min_cycle;Max_cycle;Signal;HPM_P1;HPM_P2
2021/12/09 00:01:27;;;;;;;9.93;4.75;;;4.40;56.50;;;;;;5033039;28;20215;-74
2021/12/09 00:03:57;;;;;;;21.08;5.10;;;4.40;55.90;;;;;;5032856;28;20160;-73
2021/12/09 00:06:27;;;;;;;13.35;5.70;;;4.50;56.10;;;;;;5033035;28;20254;-74
2021/12/09 00:08:55;;;;;;;11.55;4.90;;;4.40;55.70;;;;;;5035155;28;20197;-73
2021/12/09 00:11:21;;;;;;;12.95;4.45;;;4.40;56.50;;;;;;5035082;28;20180;-74
2021/12/09 00:13:47;;;;;;;9.90;4.45;;;4.30;57.10;;;;;;5032720;28;20183;-73
2021/12/09 00:16:12;;;;;;;16.37;4.97;;;4.30;57.00;;;;;;5033056;28;20183;-74
2021/12/09 00:18:38;;;;;;;15.53;4.93;;;4.40;56.30;;;;;;5036235;28;20481;-75
2021/12/09 00:21:04;;;;;;;19.17;5.83;;;4.30;56.20;;;;;;5035485;28;20188;-75
2021/12/09 00:23:30;;;;;;;11.40;4.90;;;4.30;56.10;;;;;;5025943;28;20645;-76
2021/12/09 00:25:56;;;;;;;8.07;4.60;;;4.50;56.40;;;;;;5014915;28;20184;-75
2021/12/09 00:28:21;;;;;;;8.97;4.50;;;4.40;55.80;;;;;;5015375;28;20218;-75
2021/12/09 00:30:47;;;;;;;18.80;6.00;;;4.40;56.20;;;;;;5033314;28;20179;-74
2021/12/09 00:33:15;;;;;;;11.27;4.43;;;4.40;56.30;;;;;;5032465;28;20172;-76
2021/12/09 00:35:45;;;;;;;13.95;6.20;;;4.40;56.90;;;;;;5027597;28;20645;-75
2021/12/09 00:38:18;;;;;;;13.27;4.65;;;4.40;57.60;;;;;;5011571;28;20271;-75
2021/12/09 00:40:44;;;;;;;14.07;5.78;;;4.40;58.10;;;;;;5028155;28;20176;-75
2021/12/09 00:43:10;;;;;;;14.50;5.83;;;4.30;58.50;;;;;;5031760;28;20674;-75
2021/12/09 00:45:35;;;;;;;19.20;6.40;;;4.40;58.70;;;;;;5030883;28;20187;-74
2021/12/09 00:48:01;;;;;;;19.23;5.87;;;4.40;58.90;;;;;;5023353;28;20200;-74
2021/12/09 00:50:27;;;;;;;9.67;5.53;;;4.30;59.60;;;;;;5032996;28;20172;-75
2021/12/09 00:52:52;;;;;;;13.90;5.10;;;4.30;59.80;;;;;;5022527;28;20244;-75
2021/12/09 00:55:20;;;;;;;10.30;5.97;;;4.50;58.70;;;;;;5014613;28;20448;-74
2021/12/09 00:57:46;;;;;;;19.50;6.63;;;4.50;57.60;;;;;;5011298;28;20656;-75
2021/12/09 01:00:17;;;;;;;19.52;5.82;;;4.60;57.80;;;;;;5012609;28;20299;-74
2021/12/09 01:02:42;;;;;;;12.57;4.95;;;4.60;58.00;;;;;;5015610;28;20233;-75
2021/12/09 01:05:09;;;;;;;15.30;5.43;;;4.60;58.70;;;;;;5017457;28;20188;-75
2021/12/09 01:07:36;;;;;;;14.75;5.68;;;4.60;58.20;;;;;;5032088;28;20217;-76
2021/12/09 01:10:06;;;;;;;11.23;5.43;;;4.70;58.10;;;;;;5032554;28;20196;-75
2021/12/09 01:12:32;;;;;;;15.63;6.57;;;4.70;57.30;;;;;;5031993;28;20175;-75
2021/12/09 01:14:58;;;;;;;17.00;5.73;;;4.60;57.70;;;;;;5032216;28;20186;-75
2021/12/09 01:17:24;;;;;;;7.95;5.05;;;4.60;58.80;;;;;;5031897;28;20183;-75
2021/12/09 01:19:50;;;;;;;17.93;7.00;;;4.60;58.40;;;;;;5031583;28;20212;-74
2021/12/09 01:22:16;;;;;;;15.98;6.13;;;4.50;59.50;;;;;;5032491;28;20176;-76
2021/12/09 01:24:42;;;;;;;12.90;6.80;;;4.40;61.10;;;;;;5032109;28;20176;-76
2021/12/09 01:27:08;;;;;;;9.73;5.40;;;4.20;62.40;;;;;;5016949;28;20607;-75
2021/12/09 01:29:40;;;;;;;15.80;6.05;;;4.10;64.00;;;;;;5035560;28;20444;-75
2021/12/09 01:32:08;;;;;;;21.25;6.90;;;4.10;64.90;;;;;;5039157;28;20183;-74
2021/12/09 01:34:36;;;;;;;11.93;6.50;;;4.00;66.20;;;;;;5043572;28;20207;-74
2021/12/09 01:37:06;;;;;;;13.80;6.53;;;4.00;67.10;;;;;;5038622;28;20215;-75
2021/12/09 01:39:33;;;;;;;16.77;6.40;;;3.90;68.20;;;;;;5036263;28;20684;-74
2021/12/09 01:41:59;;;;;;;13.15;5.70;;;3.90;69.00;;;;;;5034988;28;20271;-74
2021/12/09 01:44:26;;;;;;;18.38;6.10;;;4.00;69.30;;;;;;5033790;28;20260;-74
2021/12/09 01:46:52;;;;;;;21.42;7.53;;;4.10;67.40;;;;;;5030047;28;20200;-73
2021/12/09 01:49:18;;;;;;;16.60;6.60;;;4.00;67.30;;;;;;5035771;28;20727;-74
2021/12/09 01:51:45;;;;;;;29.73;7.10;;;4.10;67.60;;;;;;5034895;28;20410;-73
2021/12/09 01:54:11;;;;;;;20.05;5.90;;;4.00;67.50;;;;;;5034392;28;20211;-74
2021/12/09 01:56:37;;;;;;;12.00;6.35;;;4.00;68.30;;;;;;5035070;28;20176;-74
2021/12/09 01:59:06;;;;;;;16.83;6.50;;;4.00;68.10;;;;;;5034820;28;20227;-76
2021/12/09 02:01:33;;;;;;;15.93;6.82;;;3.90;68.90;;;;;;5034402;28;20187;-75
2021/12/09 02:04:01;;;;;;;19.15;7.13;;;3.90;68.60;;;;;;5034584;28;20550;-74
2021/12/09 02:06:27;;;;;;;12.38;5.95;;;3.90;70.20;;;;;;5035108;28;20168;-73
2021/12/09 02:08:54;;;;;;;22.50;7.07;;;3.80;71.40;;;;;;5035315;28;20632;-73
2021/12/09 02:11:20;;;;;;;13.10;7.18;;;3.60;72.90;;;;;;5034813;28;20224;-74
2021/12/09 02:13:50;;;;;;;16.77;7.07;;;3.60;74.90;;;;;;5034758;28;20587;-74
2021/12/09 02:16:15;;;;;;;20.63;6.53;;;3.60;75.80;;;;;;5034477;28;20190;-74
2021/12/09 02:18:41;;;;;;;20.43;7.43;;;3.60;75.40;;;;;;5034618;28;20212;-73
2021/12/09 02:21:15;;;;;;;18.45;5.43;;;3.50;76.80;;;;;;5033945;28;20172;-73
2021/12/09 02:23:44;;;;;;;20.77;7.25;;;3.50;77.10;;;;;;5023842;28;20204;-74
2021/12/09 02:26:10;;;;;;;17.75;6.40;;;3.60;75.80;;;;;;5030115;28;20705;-74
2021/12/09 02:28:36;;;;;;;12.27;7.90;;;3.40;78.00;;;;;;5030305;28;20219;-74
2021/12/09 02:31:02;;;;;;;14.70;8.00;;;3.30;79.40;;;;;;5035223;28;20190;-74
2021/12/09 02:33:27;;;;;;;20.05;7.13;;;3.30;80.70;;;;;;5034645;28;20230;-73
2021/12/09 02:35:53;;;;;;;14.87;7.43;;;3.30;80.40;;;;;;5034952;28;20180;-75
2021/12/09 02:38:19;;;;;;;21.40;6.17;;;3.20;82.30;;;;;;5033997;28;20297;-74
2021/12/09 02:40:47;;;;;;;22.50;7.47;;;3.20;83.00;;;;;;5034183;28;20254;-73
2021/12/09 02:43:13;;;;;;;33.08;7.25;;;3.20;82.70;;;;;;5033373;28;20767;-74
2021/12/09 02:45:40;;;;;;;20.67;8.20;;;3.20;81.90;;;;;;5032257;28;20168;-74
2021/12/09 02:48:06;;;;;;;17.08;6.50;;;3.30;81.60;;;;;;5022015;28;20210;-74
2021/12/09 02:50:31;;;;;;;24.27;7.13;;;3.30;81.20;;;;;;5014256;28;20260;-73
2021/12/09 02:52:57;;;;;;;24.47;7.40;;;3.20;81.40;;;;;;5031767;28;20176;-74
2021/12/09 02:55:23;;;;;;;22.53;7.70;;;3.10;82.70;;;;;;5033517;28;20221;-73
2021/12/09 02:57:52;;;;;;;14.83;6.47;;;3.00;84.60;;;;;;5032008;28;20183;-73
2021/12/09 03:00:20;;;;;;;18.48;7.60;;;3.00;85.00;;;;;;5033443;28;20180;-74
2021/12/09 03:02:46;;;;;;;16.52;6.70;;;3.00;85.10;;;;;;5032432;28;20237;-74
2021/12/09 03:05:12;;;;;;;18.83;6.45;;;3.00;85.50;;;;;;5033733;28;20172;-75
2021/12/09 03:07:40;;;;;;;17.20;6.37;;;2.90;86.30;;;;;;5033287;28;20210;-74
2021/12/09 03:10:20;;;;;;;18.20;6.90;;;2.90;86.50;;;;;;5033449;28;20657;-75
2021/12/09 03:12:49;;;;;;;18.98;6.55;;;2.90;86.90;;;;;;5032145;28;20270;-75
2021/12/09 03:15:15;;;;;;;17.20;6.85;;;2.90;87.00;;;;;;5033390;28;20201;-75
2021/12/09 03:17:42;;;;;;;16.05;6.90;;;2.80;87.40;;;;;;5033095;28;20321;-75
2021/12/09 03:20:09;;;;;;;8.48;5.22;;;2.80;87.90;;;;;;5032959;28;20209;-75
2021/12/09 03:22:36;;;;;;;25.27;6.20;;;2.80;88.40;;;;;;5027395;28;20199;-74
2021/12/09 03:25:03;;;;;;;20.65;7.10;;;2.80;89.10;;;;;;5013615;28;20231;-74
2021/12/09 03:27:29;;;;;;;19.20;6.70;;;2.80;89.20;;;;;;5017845;28;20191;-73
2021/12/09 03:29:55;;;;;;;15.67;5.17;;;2.80;89.20;;;;;;5032290;28;20200;-73
2021/12/09 03:32:23;;;;;;;19.58;7.40;;;2.70;89.40;;;;;;5034774;28;20180;-73
2021/12/09 03:34:49;;;;;;;17.60;6.55;;;2.60;90.40;;;;;;5037754;28;20194;-74
2021/12/09 03:37:19;;;;;;;15.32;6.32;;;2.60;91.70;;;;;;5037422;28;20513;-73
2021/12/09 03:39:45;;;;;;;25.20;7.53;;;2.60;91.90;;;;;;5037175;28;20199;-73
2021/12/09 03:42:13;;;;;;;18.60;6.88;;;2.60;92.50;;;;;;5036429;28;20195;-73
2021/12/09 03:44:41;;;;;;;20.08;6.20;;;2.60;92.90;;;;;;5051188;28;20195;-73
2021/12/09 03:47:10;;;;;;;14.00;6.40;;;2.70;91.00;;;;;;5031656;28;20573;-72
2021/12/09 03:49:36;;;;;;;21.15;6.18;;;2.70;89.90;;;;;;5017787;28;20269;-73
2021/12/09 03:52:03;;;;;;;17.02;5.95;;;2.70;89.90;;;;;;5028813;28;20187;-73
2021/12/09 03:54:29;;;;;;;14.05;6.80;;;2.60;90.60;;;;;;5031888;28;20190;-73
2021/12/09 03:56:55;;;;;;;16.77;5.80;;;2.60;91.60;;;;;;5032977;28;20633;-73
2021/12/09 03:59:20;;;;;;;19.37;6.63;;;2.60;90.60;;;;;;5032822;28;20215;-73
2021/12/09 04:01:46;;;;;;;14.90;6.53;;;2.60;91.10;;;;;;5032648;28;20176;-73
2021/12/09 04:04:13;;;;;;;21.52;5.97;;;2.60;90.70;;;;;;5018391;28;20188;-73
2021/12/09 04:06:39;;;;;;;23.90;6.53;;;2.60;89.60;;;;;;5016585;28;20188;-73
2021/12/09 04:09:08;;;;;;;14.67;6.77;;;2.60;90.50;;;;;;5022102;28;20738;-73
2021/12/09 04:11:34;;;;;;;23.27;6.20;;;2.60;91.10;;;;;;5027949;28;20465;-73
2021/12/09 04:14:00;;;;;;;9.60;5.83;;;2.50;91.30;;;;;;5031588;28;20180;-73
2021/12/09 04:16:26;;;;;;;15.70;6.83;;;2.50;91.20;;;;;;5033273;28;20414;-73
2021/12/09 04:18:51;;;;;;;27.83;5.97;;;2.40;93.10;;;;;;5044587;28;20453;-74
2021/12/09 04:21:17;;;;;;;10.70;6.47;;;2.40;93.20;;;;;;5035584;28;20987;-74
2021/12/09 04:23:43;;;;;;;11.20;5.50;;;2.40;93.50;;;;;;5021748;28;20188;-75
2021/12/09 04:26:09;;;;;;;23.40;6.60;;;2.40;93.40;;;;;;5012001;28;20438;-74
2021/12/09 04:28:37;;;;;;;11.30;5.85;;;2.40;93.40;;;;;;5024583;28;20633;-74
2021/12/09 04:31:04;;;;;;;10.50;5.95;;;2.40;93.50;;;;;;5032139;28;20180;-75
2021/12/09 04:33:30;;;;;;;17.98;6.50;;;2.40;93.90;;;;;;5030780;28;20172;-75
2021/12/09 04:35:57;;;;;;;12.67;4.90;;;2.40;93.80;;;;;;5032343;28;20340;-74
2021/12/09 04:38:22;;;;;;;18.52;6.82;;;2.40;94.10;;;;;;5031757;28;20438;-75
2021/12/09 04:40:48;;;;;;;13.37;6.27;;;2.40;93.80;;;;;;5029734;28;20186;-74
2021/12/09 04:43:14;;;;;;;13.80;5.10;;;2.40;92.70;;;;;;5032578;28;20171;-75
2021/12/09 04:45:40;;;;;;;8.33;4.23;;;2.30;94.10;;;;;;5033566;28;20645;-76
2021/12/09 04:48:07;;;;;;;15.38;6.35;;;2.30;93.70;;;;;;5028594;28;20458;-75
2021/12/09 04:50:34;;;;;;;17.92;6.95;;;2.30;92.90;;;;;;5031517;28;20187;-75
2021/12/09 04:53:00;;;;;;;11.63;4.93;;;2.30;92.60;;;;;;5032342;28;20228;-74
2021/12/09 04:55:26;;;;;;;20.20;5.97;;;2.30;93.40;;;;;;5031899;28;20168;-75
2021/12/09 04:57:51;;;;;;;9.80;5.43;;;2.30;93.00;;;;;;5031727;28;20175;-75
2021/12/09 05:00:22;;;;;;;20.23;6.00;;;2.30;93.50;;;;;;5031936;28;20671;-74
2021/12/09 05:03:03;;;;;;;9.77;5.80;;;2.30;93.10;;;;;;5029949;28;20168;-75
2021/12/09 05:05:42;;;;;;;18.15;5.78;;;2.30;93.10;;;;;;5017329;28;20271;-75
2021/12/09 05:08:10;;;;;;;15.00;5.50;;;2.20;93.80;;;;;;5024409;28;20199;-74
2021/12/09 05:10:54;;;;;;;25.85;5.80;;;2.20;94.60;;;;;;5037866;28;20186;-75
2021/12/09 05:13:21;;;;;;;12.65;5.22;;;2.20;94.60;;;;;;5045816;28;20377;-75
2021/12/09 05:15:47;;;;;;;16.45;5.60;;;2.10;95.50;;;;;;5042475;28;20168;-75
2021/12/09 05:18:13;;;;;;;14.03;5.57;;;2.10;95.60;;;;;;5042951;28;20294;-74
2021/12/09 05:20:39;;;;;;;14.07;5.50;;;2.20;94.50;;;;;;5040657;28;20182;-75
2021/12/09 05:23:06;;;;;;;16.20;5.50;;;2.20;94.60;;;;;;5032520;28;20242;-75
2021/12/09 05:25:31;;;;;;;14.63;6.03;;;2.20;94.30;;;;;;5020361;28;20856;-75
2021/12/09 05:27:57;;;;;;;8.87;5.20;;;2.20;94.60;;;;;;5026052;28;20245;-75
2021/12/09 05:30:25;;;;;;;16.87;4.83;;;2.20;94.00;;;;;;5035680;28;20512;-74
2021/12/09 05:32:51;;;;;;;16.52;5.75;;;2.30;91.80;;;;;;5036699;28;20690;-75
2021/12/09 05:35:18;;;;;;;13.55;5.10;;;2.30;92.20;;;;;;5035013;28;20183;-74
2021/12/09 05:37:45;;;;;;;16.83;5.05;;;2.20;92.50;;;;;;5034872;28;20168;-75
2021/12/09 05:40:12;;;;;;;19.55;5.50;;;2.20;92.80;;;;;;5024070;28;20211;-74
2021/12/09 05:42:38;;;;;;;15.43;6.15;;;2.20;92.20;;;;;;5015143;28;20172;-73
2021/12/09 05:45:05;;;;;;;19.33;6.00;;;2.20;92.40;;;;;;5028285;28;20199;-73
2021/12/09 05:47:31;;;;;;;8.98;6.05;;;2.30;91.20;;;;;;5027586;28;20999;-75
2021/12/09 05:49:57;;;;;;;18.02;6.07;;;2.20;92.10;;;;;;5035297;28;20223;-75
2021/12/09 05:52:22;;;;;;;18.07;5.23;;;2.20;92.30;;;;;;5026876;28;20258;-74
2021/12/09 05:54:48;;;;;;;12.97;5.70;;;2.20;91.90;;;;;;5015370;28;20395;-74
2021/12/09 05:57:14;;;;;;;18.33;6.03;;;2.20;92.50;;;;;;5024217;28;20275;-74
2021/12/09 05:59:41;;;;;;;14.93;5.30;;;2.10;93.40;;;;;;5034531;28;20223;-75
2021/12/09 06:02:11;;;;;;;12.50;6.35;;;2.20;92.70;;;;;;5034621;28;20429;-73
2021/12/09 06:04:37;;;;;;;16.15;5.45;;;2.20;92.00;;;;;;5034747;28;20255;-73
2021/12/09 06:07:04;;;;;;;15.48;6.03;;;2.20;92.20;;;;;;5035161;28;20238;-75
2021/12/09 06:09:30;;;;;;;21.38;6.25;;;2.20;91.60;;;;;;5034237;28;20195;-75
2021/12/09 06:11:55;;;;;;;10.93;6.10;;;2.20;93.10;;;;;;5044629;28;20206;-75
2021/12/09 06:14:21;;;;;;;15.53;6.10;;;2.20;91.50;;;;;;5049717;28;20685;-75
2021/12/09 06:16:47;;;;;;;16.60;7.17;;;2.10;92.80;;;;;;5035247;28;20168;-75
2021/12/09 06:19:12;;;;;;;11.40;5.90;;;2.10;92.50;;;;;;5033322;28;20207;-75
2021/12/09 06:21:38;;;;;;;14.47;5.70;;;2.10;93.30;;;;;;5034058;28;20172;-75
2021/12/09 06:24:04;;;;;;;20.20;7.90;;;2.10;92.40;;;;;;5020059;28;20510;-74
2021/12/09 06:26:31;;;;;;;24.30;7.50;;;2.10;92.90;;;;;;5014130;28;20176;-73
2021/12/09 06:28:57;;;;;;;14.88;8.18;;;2.10;93.00;;;;;;5025353;28;20473;-74
2021/12/09 06:31:23;;;;;;;18.60;10.02;;;2.10;92.60;;;;;;5034000;28;20172;-73
2021/12/09 06:33:50;;;;;;;19.83;9.67;;;2.10;93.20;;;;;;5034003;28;20204;-73
2021/12/09 06:36:15;;;;;;;22.08;12.98;;;2.10;93.30;;;;;;5033235;28;20430;-74
2021/12/09 06:38:41;;;;;;;27.70;15.40;;;2.00;93.70;;;;;;5033545;28;20586;-73
2021/12/09 06:41:08;;;;;;;28.10;15.47;;;1.90;95.30;;;;;;5034525;28;20176;-74
2021/12/09 06:43:37;;;;;;;38.38;18.60;;;2.00;94.80;;;;;;5033578;28;20172;-73
2021/12/09 06:46:05;;;;;;;48.20;22.40;;;1.90;95.00;;;;;;5032263;28;20172;-74
2021/12/09 06:48:32;;;;;;;40.38;24.63;;;1.90;96.20;;;;;;5028002;28;20589;-74
2021/12/09 06:51:01;;;;;;;54.30;25.98;;;1.90;96.20;;;;;;5034526;28;20183;-73
2021/12/09 06:53:27;;;;;;;52.63;27.33;;;1.90;97.10;;;;;;5033914;28;20172;-74
2021/12/09 06:55:53;;;;;;;60.43;31.53;;;1.90;97.50;;;;;;5034505;28;20641;-74
2021/12/09 06:58:21;;;;;;;60.77;33.43;;;1.80;98.10;;;;;;5039481;28;20550;-74
2021/12/09 07:00:47;;;;;;;64.10;35.72;;;1.90;98.90;;;;;;5035484;28;20544;-72
2021/12/09 07:03:16;;;;;;;60.80;37.25;;;1.80;97.90;;;;;;5035024;28;20187;-76
2021/12/09 07:05:44;;;;;;;66.40;38.47;;;1.80;98.80;;;;;;5018733;28;20534;-75
2021/12/09 07:08:10;;;;;;;65.05;36.75;;;1.80;99.60;;;;;;5020393;28;20715;-75
2021/12/09 07:10:36;;;;;;;83.83;40.43;;;1.70;99.90;;;;;;5035840;28;20172;-74
2021/12/09 07:13:03;;;;;;;69.80;39.53;;;1.80;99.90;;;;;;5034431;28;20509;-74
2021/12/09 07:15:29;;;;;;;69.38;39.08;;;1.80;99.90;;;;;;5033387;28;20164;-75
2021/12/09 07:17:54;;;;;;;61.90;37.70;;;1.70;99.90;;;;;;5032914;28;20190;-74
2021/12/09 07:20:23;;;;;;;60.07;38.80;;;1.70;99.90;;;;;;5032640;28;20243;-74
2021/12/09 07:22:49;;;;;;;66.45;39.65;;;1.70;99.90;;;;;;5032439;28;20176;-73
2021/12/09 07:25:17;;;;;;;77.43;44.47;;;1.70;99.90;;;;;;5030019;28;20327;-72
2021/12/09 07:27:43;;;;;;;88.45;43.20;;;1.70;99.90;;;;;;5022898;28;20200;-73
2021/12/09 07:30:11;;;;;;;73.28;45.10;;;1.60;99.90;;;;;;5022027;28;20209;-72
2021/12/09 07:32:37;;;;;;;77.80;49.80;;;1.70;99.90;;;;;;5033071;28;20590;-73
2021/12/09 07:35:05;;;;;;;81.63;50.03;;;1.60;99.90;;;;;;5033885;28;20558;-72
2021/12/09 07:37:30;;;;;;;85.25;50.65;;;1.60;99.90;;;;;;5032645;28;20187;-72
2021/12/09 07:39:56;;;;;;;83.57;52.80;;;1.70;99.90;;;;;;5023443;28;20238;-72
2021/12/09 07:42:22;;;;;;;94.13;58.73;;;1.70;99.90;;;;;;5012793;28;20198;-71
2021/12/09 07:44:47;;;;;;;90.13;53.25;;;1.80;99.90;;;;;;5032862;28;20184;-73
2021/12/09 07:47:13;;;;;;;77.97;45.53;;;1.70;99.90;;;;;;5028703;28;20200;-71
2021/12/09 07:49:39;;;;;;;70.82;46.25;;;1.80;99.90;;;;;;5032221;28;20260;-72
2021/12/09 07:52:05;;;;;;;95.83;48.10;;;1.80;99.90;;;;;;5033067;28;20250;-72
2021/12/09 07:54:31;;;;;;;79.07;44.90;;;1.80;99.90;;;;;;5033345;28;20505;-74
2021/12/09 07:56:57;;;;;;;76.30;45.30;;;1.90;99.90;;;;;;5034382;28;20921;-72
2021/12/09 07:59:23;;;;;;;64.90;41.37;;;1.90;99.90;;;;;;5033289;28;20277;-72
2021/12/09 08:01:49;;;;;;;64.90;40.33;;;1.90;99.20;;;;;;5033857;28;20430;-74
2021/12/09 08:04:15;;;;;;;70.18;39.10;;;2.00;99.40;;;;;;5028377;28;20186;-73
2021/12/09 08:06:41;;;;;;;59.00;36.40;;;2.00;99.60;;;;;;5031585;28;20330;-76
2021/12/09 08:09:08;;;;;;;55.78;30.92;;;2.10;97.90;;;;;;5028122;28;20203;-74
2021/12/09 08:11:37;;;;;;;47.67;27.08;;;2.10;97.00;;;;;;5022951;28;20214;-74
2021/12/09 08:14:04;;;;;;;49.97;23.17;;;2.30;96.20;;;;;;5016588;28;20264;-74
2021/12/09 08:16:33;;;;;;;34.47;23.20;;;2.40;92.50;;;;;;5026242;28;20188;-75
2021/12/09 08:18:59;;;;;;;31.23;19.77;;;2.30;91.00;;;;;;5030799;28;20195;-73
2021/12/09 08:21:26;;;;;;;38.95;20.27;;;2.30;91.20;;;;;;5028871;28;20249;-74
2021/12/09 08:23:52;;;;;;;27.23;17.30;;;2.20;93.20;;;;;;5022218;28;20646;-74
2021/12/09 08:26:20;;;;;;;29.80;16.70;;;2.20;93.50;;;;;;5027637;28;20270;-75
2021/12/09 08:28:46;;;;;;;32.63;15.73;;;2.30;94.60;;;;;;5029539;28;20635;-72
2021/12/09 08:31:12;;;;;;;25.27;13.97;;;2.30;92.70;;;;;;5031996;28;20270;-73
2021/12/09 08:33:38;;;;;;;30.58;14.80;;;2.30;93.50;;;;;;5030293;28;20432;-71
2021/12/09 08:36:04;;;;;;;30.30;14.20;;;2.40;92.40;;;;;;5028640;28;20552;-72
2021/12/09 08:38:30;;;;;;;30.40;13.90;;;2.40;91.70;;;;;;5027464;28;20249;-73
2021/12/09 08:40:55;;;;;;;30.20;12.67;;;2.30;92.00;;;;;;5030753;28;20192;-72
2021/12/09 08:43:23;;;;;;;28.70;10.40;;;2.40;92.50;;;;;;5021741;28;20416;-72
2021/12/09 08:45:50;;;;;;;15.90;9.38;;;2.50;88.80;;;;;;5021105;28;20191;-72
2021/12/09 08:48:16;;;;;;;14.38;8.45;;;2.60;88.50;;;;;;5027096;28;20215;-72
2021/12/09 08:50:44;;;;;;;22.50;9.23;;;2.70;87.80;;;;;;5027377;28;20187;-73
2021/12/09 08:53:14;;;;;;;21.95;8.13;;;2.60;87.10;;;;;;5021100;28;20171;-72
2021/12/09 08:55:40;;;;;;;18.98;7.40;;;2.80;87.60;;;;;;5025168;28;20702;-74
2021/12/09 08:58:09;;;;;;;17.58;8.43;;;3.00;86.40;;;;;;5030505;28;20186;-74
2021/12/09 09:00:37;;;;;;;17.48;9.23;;;3.40;75.40;;;;;;5029902;28;20198;-75
2021/12/09 09:03:03;;;;;;;15.60;8.52;;;3.50;74.00;;;;;;5025383;28;20308;-73
2021/12/09 09:05:30;;;;;;;19.77;8.07;;;3.40;76.30;;;;;;5029381;28;20191;-74
2021/12/09 09:07:56;;;;;;;18.05;7.65;;;3.40;75.20;;;;;;5030692;28;20580;-74
2021/12/09 09:10:25;;;;;;;27.90;8.23;;;3.30;76.10;;;;;;5026461;28;20181;-74
2021/12/09 09:12:52;;;;;;;19.70;8.02;;;3.30;76.90;;;;;;5025583;28;20239;-74
2021/12/09 09:15:20;;;;;;;16.42;6.90;;;3.20;77.00;;;;;;5027105;28;20267;-73
2021/12/09 09:17:45;;;;;;;19.90;7.20;;;3.30;77.30;;;;;;5035029;28;20176;-75
2021/12/09 09:20:14;;;;;;;17.50;7.60;;;3.50;73.20;;;;;;5018028;28;20216;-75
2021/12/09 09:22:41;;;;;;;13.02;6.85;;;3.70;70.70;;;;;;5030014;28;20459;-75
2021/12/09 09:25:09;;;;;;;17.50;6.45;;;3.70;70.00;;;;;;5028022;28;20192;-75
2021/12/09 09:27:35;;;;;;;12.20;6.63;;;3.70;69.70;;;;;;5028988;28;20192;-75
2021/12/09 09:30:03;;;;;;;30.43;7.30;;;3.80;69.90;;;;;;5018170;28;20251;-72
2021/12/09 09:32:28;;;;;;;18.75;7.57;;;4.10;67.00;;;;;;5022773;28;20422;-72
2021/12/09 09:34:54;;;;;;;16.57;7.10;;;4.20;64.90;;;;;;5029271;28;20639;-72
2021/12/09 09:37:20;;;;;;;20.03;6.87;;;4.20;65.40;;;;;;5015669;28;20188;-71
2021/12/09 09:39:47;;;;;;;16.63;7.03;;;4.50;62.30;;;;;;5030876;28;20199;-72
2021/12/09 09:44:48;;;;;;;20.47;7.67;;;4.60;61.30;;;;;;5036904;28;20255;-72
2021/12/09 09:47:16;;;;;;;18.08;7.45;;;4.60;60.30;;;;;;5038700;28;20445;-72
2021/12/09 09:49:42;;;;;;;24.02;7.15;;;4.80;58.90;;;;;;5032245;28;20562;-72
2021/12/09 09:52:09;;;;;;;17.23;6.70;;;4.90;58.10;;;;;;5024526;28;20218;-72
2021/12/09 09:54:40;;;;;;;13.75;7.10;;;4.90;58.20;;;;;;5033525;28;20929;-72
2021/12/09 09:57:07;;;;;;;12.15;6.55;;;4.90;55.50;;;;;;5026662;28;20714;-73
2021/12/09 09:59:33;;;;;;;10.57;6.43;;;4.80;56.30;;;;;;5028217;28;20680;-72
2021/12/09 10:01:59;;;;;;;18.80;6.65;;;4.80;58.20;;;;;;5028623;28;20230;-73
2021/12/09 10:04:32;;;;;;;12.73;5.90;;;4.90;56.60;;;;;;5032398;28;20184;-71
2021/12/09 10:06:59;;;;;;;19.15;6.50;;;5.00;57.70;;;;;;5035307;28;20187;-73
2021/12/09 10:09:25;;;;;;;14.75;6.30;;;5.20;55.40;;;;;;5031172;28;20244;-73
2021/12/09 10:11:51;;;;;;;13.77;5.93;;;5.10;55.30;;;;;;5027398;28;20176;-72
2021/12/09 10:14:23;;;;;;;20.13;7.97;;;5.10;54.90;;;;;;5033664;28;20202;-72
2021/12/09 10:17:12;;;;;;;25.75;7.35;;;5.10;53.80;;;;;;5034575;28;21011;-72
2021/12/09 10:19:46;;;;;;;13.95;7.38;;;5.30;53.50;;;;;;5025005;28;20211;-72
2021/12/09 10:22:20;;;;;;;15.18;6.22;;;5.50;51.90;;;;;;5027533;28;20184;-71
2021/12/09 10:24:48;;;;;;;21.00;6.55;;;5.90;49.10;;;;;;5027258;28;20190;-71
2021/12/09 10:27:28;;;;;;;21.90;6.70;;;6.00;48.10;;;;;;5032569;28;20309;-71
2021/12/09 10:30:01;;;;;;;20.77;7.00;;;6.10;46.90;;;;;;5019657;28;20204;-73
2021/12/09 10:32:32;;;;;;;18.80;6.65;;;6.20;47.10;;;;;;5031628;28;20521;-73
2021/12/09 10:35:06;;;;;;;9.95;5.60;;;6.20;46.00;;;;;;5030058;28;20191;-73
2021/12/09 10:37:35;;;;;;;15.18;7.32;;;6.30;45.30;;;;;;5034264;28;20186;-75
2021/12/09 10:40:27;;;;;;;18.23;6.22;;;6.10;45.70;;;;;;5026541;28;20242;-74
2021/12/09 10:42:57;;;;;;;12.82;5.75;;;6.20;45.00;;;;;;5030869;28;20200;-74
2021/12/09 10:45:32;;;;;;;12.60;6.07;;;6.40;44.40;;;;;;5026047;28;20180;-75
2021/12/09 10:48:21;;;;;;;10.20;5.13;;;6.50;43.80;;;;;;5033837;28;20209;-75
2021/12/09 10:51:24;;;;;;;28.08;6.50;;;6.30;43.70;;;;;;5053549;28;20264;-73
2021/12/09 10:53:51;;;;;;;14.02;5.38;;;6.40;44.90;;;;;;5046635;28;20183;-73
2021/12/09 10:56:29;;;;;;;10.52;6.00;;;6.40;43.40;;;;;;5032770;28;20247;-72
2021/12/09 10:58:55;;;;;;;14.02;5.75;;;6.30;43.30;;;;;;5019395;28;20560;-73
2021/12/09 11:01:24;;;;;;;17.52;8.30;;;6.20;43.90;;;;;;5014684;28;20671;-73
2021/12/09 11:03:57;;;;;;;25.25;6.20;;;6.40;44.40;;;;;;5026545;28;20243;-73
2021/12/09 11:06:31;;;;;;;10.80;6.00;;;6.50;43.30;;;;;;5033894;28;20251;-74
2021/12/09 11:08:59;;;;;;;12.23;5.65;;;6.30;43.00;;;;;;5037642;28;20218;-73
2021/12/09 11:11:34;;;;;;;21.63;5.90;;;6.30;43.30;;;;;;5039146;28;20559;-72
2021/12/09 11:14:11;;;;;;;16.90;4.90;;;6.10;44.40;;;;;;5035904;28;20202;-74
2021/12/09 11:16:43;;;;;;;11.20;5.55;;;6.30;43.70;;;;;;5037174;28;20210;-74
2021/12/09 11:19:13;;;;;;;18.33;5.68;;;6.30;44.40;;;;;;5036157;28;20250;-74
2021/12/09 11:21:44;;;;;;;8.73;5.00;;;6.30;44.30;;;;;;5031710;28;20218;-74
2021/12/09 11:24:13;;;;;;;12.25;6.57;;;6.60;42.90;;;;;;5024906;28;20184;-74
2021/12/09 11:26:50;;;;;;;16.92;6.28;;;6.60;43.40;;;;;;5026668;28;20195;-74
2021/12/09 11:29:21;;;;;;;15.85;6.15;;;6.50;43.60;;;;;;5025821;28;20231;-74
2021/12/09 11:32:04;;;;;;;17.65;5.95;;;6.40;43.00;;;;;;5031719;28;20310;-74
2021/12/09 11:34:44;;;;;;;16.98;6.82;;;6.60;41.80;;;;;;5021626;28;20537;-73
2021/12/09 11:37:32;;;;;;;17.67;6.43;;;6.50;43.20;;;;;;5029040;28;20515;-74
2021/12/09 11:40:28;;;;;;;17.13;7.05;;;6.60;42.50;;;;;;5027504;28;20257;-74
2021/12/09 11:42:57;;;;;;;10.73;5.00;;;6.60;42.50;;;;;;5030513;28;20180;-72
2021/12/09 11:45:28;;;;;;;19.70;5.63;;;6.60;42.40;;;;;;5023122;28;20218;-72
2021/12/09 11:47:54;;;;;;;11.30;5.38;;;6.80;42.40;;;;;;5013327;28;20208;-73
2021/12/09 11:50:23;;;;;;;18.98;5.25;;;6.60;42.00;;;;;;5023159;28;20183;-73
2021/12/09 11:52:52;;;;;;;16.50;5.53;;;6.70;41.70;;;;;;5023770;28;20223;-73
2021/12/09 11:55:20;;;;;;;12.52;4.90;;;6.60;42.20;;;;;;5032068;28;20217;-74
2021/12/09 11:57:54;;;;;;;13.18;5.40;;;6.60;43.30;;;;;;5031586;28;20180;-75
2021/12/09 12:21:42;;;;;;;15.32;4.70;;;6.50;43.40;;;;;;5023178;28;20195;-71
2021/12/09 12:24:08;;;;;;;14.23;5.25;;;6.50;42.90;;;;;;5029875;28;20202;-71
2021/12/09 12:30:39;;;;;;;14.77;5.18;;;6.60;41.60;;;;;;5031445;28;20199;-74
2021/12/09 12:35:43;;;;;;;11.88;5.40;;;6.50;42.80;;;;;;5027051;28;20242;-75
2021/12/09 12:41:05;;;;;;;7.72;3.10;;;6.70;41.60;;;;;;5027606;28;20675;-73
2021/12/09 12:43:42;;;;;;;11.17;4.60;;;6.80;40.40;;;;;;5031300;28;20290;-73
2021/12/09 12:46:15;;;;;;;8.30;4.30;;;6.90;40.80;;;;;;5029106;28;20425;-73
2021/12/09 12:51:24;;;;;;;23.90;4.18;;;6.60;41.60;;;;;;5025062;28;20199;-72
2021/12/09 12:54:01;;;;;;;14.38;4.53;;;6.60;41.80;;;;;;5018780;28;20182;-76
2021/12/09 12:56:32;;;;;;;9.00;3.20;;;6.50;42.50;;;;;;5029889;28;20171;-74
2021/12/09 12:59:12;;;;;;;7.95;3.75;;;6.50;42.80;;;;;;5029810;28;20223;-72
2021/12/09 13:01:45;;;;;;;7.22;3.83;;;6.50;42.80;;;;;;5031450;28;20176;-75
2021/12/09 13:04:27;;;;;;;9.10;3.70;;;6.60;43.00;;;;;;5031212;28;20259;-75
2021/12/09 13:06:59;;;;;;;8.63;3.60;;;6.70;43.20;;;;;;5012754;28;20188;-74
2021/12/09 13:12:01;;;;;;;8.52;4.10;;;6.60;43.10;;;;;;5032512;28;20179;-76
2021/12/09 13:14:31;;;;;;;11.20;4.28;;;6.40;43.20;;;;;;5028427;28;20590;-75
2021/12/09 13:17:13;;;;;;;10.88;3.85;;;6.30;44.20;;;;;;5032207;28;20176;-75
2021/12/09 13:19:52;;;;;;;12.52;4.57;;;6.20;44.80;;;;;;5031959;28;20602;-76
2021/12/09 13:22:32;;;;;;;6.32;3.22;;;6.20;45.80;;;;;;5031429;28;20180;-75
2021/12/09 13:25:17;;;;;;;13.15;4.00;;;6.50;43.80;;;;;;5014620;28;20227;-74
2021/12/09 13:28:02;;;;;;;13.07;4.88;;;6.50;44.40;;;;;;5025891;28;20195;-74
2021/12/09 13:47:02;;;;;;;7.88;3.53;;;6.60;47.20;;;;;;5022826;28;20583;-75